Time,TemperatureF,DewpointF,PressureIn,WindDirection,WindDirectionDegrees,WindSpeedMPH,WindSpeedGustMPH,Humidity,HourlyPrecipIn,Conditions,Clouds,dailyrainin,SoftwareType,DateUTC
2013-06-17 05:00:00,45.0,-99.9,29.85,NNW,340,1.0,-999.0,-999,-99.99,,,-99.99,,2013-06-17 05:00:00,
2013-06-17 06:00:00,46.0,-99.9,29.86,NNE,20,14.0,-999.0,-999,-99.99,,,-99.99,,2013-06-17 06:00:00,
2013-06-17 06:33:00,46.0,-99.9,29.86,NNE,20,14.0,-999.0,-999,-99.99,,,-99.99,,2013-06-17 06:33:00,
2013-06-17 06:44:00,46.0,-99.9,29.86,NNE,20,14.0,-999.0,-999,-99.99,,,-99.99,,2013-06-17 06:44:00,
2013-06-17 06:53:00,46.0,-99.9,29.86,NNE,20,14.0,-999.0,-999,-99.99,,,-99.99,,2013-06-17 06:53:00,
2013-06-17 08:00:00,46.0,-99.9,29.90,NE,50,20.0,-999.0,-999,-99.99,,,-99.99,,2013-06-17 08:00:00,
2013-06-17 08:34:00,46.0,-99.9,29.90,NE,50,20.0,-999.0,-999,-99.99,,,-99.99,,2013-06-17 08:34:00,
2013-06-17 08:43:00,46.0,-99.9,29.90,NE,50,20.0,-999.0,-999,-99.99,,,-99.99,,2013-06-17 08:43:00,
2013-06-17 08:53:00,46.0,-99.9,29.90,NE,50,20.0,-999.0,-999,-99.99,,,-99.99,,2013-06-17 08:53:00,
2013-06-17 09:00:00,48.0,-99.9,29.92,ENE,60,7.0,-999.0,-999,-99.99,,,-99.99,,2013-06-17 09:00:00,
2013-06-17 09:34:00,48.0,-99.9,29.92,ENE,60,7.0,-999.0,-999,-99.99,,,-99.99,,2013-06-17 09:34:00,
2013-06-17 09:44:00,48.0,-99.9,29.92,ENE,60,7.0,-999.0,-999,-99.99,,,-99.99,,2013-06-17 09:44:00,
2013-06-17 09:53:00,48.0,-99.9,29.92,ENE,60,7.0,-999.0,-999,-99.99,,,-99.99,,2013-06-17 09:53:00,
2013-06-17 10:00:00,50.0,-99.9,29.93,ENE,60,8.0,-999.0,-999,-99.99,,,-99.99,,2013-06-17 10:00:00,
2013-06-17 10:33:00,50.0,-99.9,29.93,ENE,60,8.0,-999.0,-999,-99.99,,,-99.99,,2013-06-17 10:33:00,
2013-06-17 10:43:00,50.0,-99.9,29.93,ENE,60,8.0,-999.0,-999,-99.99,,,-99.99,,2013-06-17 10:43:00,
2013-06-17 10:54:00,50.0,-99.9,29.93,ENE,60,8.0,-999.0,-999,-99.99,,,-99.99,,2013-06-17 10:54:00,
2013-06-17 11:00:00,49.0,-99.9,29.94,East,90,6.0,-999.0,-999,-99.99,,,-99.99,,2013-06-17 11:00:00,
2013-06-17 11:33:00,49.0,-99.9,29.94,East,90,6.0,-999.0,-999,-99.99,,,-99.99,,2013-06-17 11:33:00,
2013-06-17 11:43:00,49.0,-99.9,29.94,East,90,6.0,-999.0,-999,-99.99,,,-99.99,,2013-06-17 11:43:00,
2013-06-17 11:53:00,49.0,-99.9,29.94,East,90,6.0,-999.0,-999,-99.99,,,-99.99,,2013-06-17 11:53:00,
2013-06-17 12:00:00,49.0,-99.9,29.95,ENE,70,9.0,-999.0,-999,-99.99,,,-99.99,,2013-06-17 12:00:00,
2013-06-17 12:33:00,49.0,-99.9,29.95,ENE,70,9.0,-999.0,-999,-99.99,,,-99.99,,2013-06-17 12:33:00,
2013-06-17 12:43:00,49.0,-99.9,29.95,ENE,70,9.0,-999.0,-999,-99.99,,,-99.99,,2013-06-17 12:43:00,
2013-06-17 12:53:00,49.0,-99.9,29.95,ENE,70,9.0,-999.0,-999,-99.99,,,-99.99,,2013-06-17 12:53:00,
2013-06-17 15:00:00,48.0,-99.9,30.00,ENE,70,10.0,-999.0,-999,-99.99,,,-99.99,,2013-06-17 15:00:00,
2013-06-17 15:33:00,48.0,-99.9,30.00,ENE,70,10.0,-999.0,-999,-99.99,,,-99.99,,2013-06-17 15:33:00,
2013-06-17 15:43:00,48.0,-99.9,30.00,ENE,70,10.0,-999.0,-999,-99.99,,,-99.99,,2013-06-17 15:43:00,
2013-06-17 15:53:00,48.0,-99.9,30.00,ENE,70,10.0,-999.0,-999,-99.99,,,-99.99,,2013-06-17 15:53:00,
2013-06-17 16:00:00,49.0,-99.9,30.02,ENE,70,2.0,-999.0,-999,-99.99,,,-99.99,,2013-06-17 16:00:00,
2013-06-17 16:33:00,49.0,-99.9,30.02,ENE,70,2.0,-999.0,-999,-99.99,,,-99.99,,2013-06-17 16:33:00,
2013-06-17 16:43:00,49.0,-99.9,30.02,ENE,70,2.0,-999.0,-999,-99.99,,,-99.99,,2013-06-17 16:43:00,
2013-06-17 16:54:00,49.0,-99.9,30.02,ENE,70,2.0,-999.0,-999,-99.99,,,-99.99,,2013-06-17 16:54:00,
2013-06-17 17:00:00,47.0,-99.9,30.02,NE,50,18.0,-999.0,-999,-99.99,,,-99.99,,2013-06-17 17:00:00,
2013-06-17 17:34:00,47.0,-99.9,30.02,NE,50,18.0,-999.0,-999,-99.99,,,-99.99,,2013-06-17 17:34:00,
2013-06-17 17:43:00,47.0,-99.9,30.02,NE,50,18.0,-999.0,-999,-99.99,,,-99.99,,2013-06-17 17:43:00,
2013-06-17 17:52:00,47.0,-99.9,30.02,NE,50,18.0,-999.0,-999,-99.99,,,-99.99,,2013-06-17 17:52:00,
2013-06-17 18:00:00,44.0,-99.9,30.02,ENE,60,27.0,-999.0,-999,-99.99,,,-99.99,,2013-06-17 18:00:00,
2013-06-17 18:33:00,44.0,-99.9,30.02,ENE,60,27.0,-999.0,-999,-99.99,,,-99.99,,2013-06-17 18:33:00,
2013-06-17 18:43:00,44.0,-99.9,30.02,ENE,60,27.0,-999.0,-999,-99.99,,,-99.99,,2013-06-17 18:43:00,
2013-06-17 18:53:00,44.0,-99.9,30.02,ENE,60,27.0,-999.0,-999,-99.99,,,-99.99,,2013-06-17 18:53:00,
2013-06-17 19:00:00,42.0,-99.9,30.04,NE,50,22.0,-999.0,-999,-99.99,,,-99.99,,2013-06-17 19:00:00,
2013-06-17 19:33:00,42.0,-99.9,30.04,NE,50,22.0,-999.0,-999,-99.99,,,-99.99,,2013-06-17 19:33:00,
2013-06-17 19:44:00,42.0,-99.9,30.04,NE,50,22.0,-999.0,-999,-99.99,,,-99.99,,2013-06-17 19:44:00,
2013-06-17 19:54:00,42.0,-99.9,30.04,NE,50,22.0,-999.0,-999,-99.99,,,-99.99,,2013-06-17 19:54:00,
2013-06-17 20:00:00,49.0,-99.9,30.08,NNW,340,1.0,-999.0,-999,-99.99,,,-99.99,,2013-06-17 20:00:00,
2013-06-17 20:34:00,49.0,-99.9,30.08,NNW,340,1.0,-999.0,-999,-99.99,,,-99.99,,2013-06-17 20:34:00,
2013-06-17 20:44:00,49.0,-99.9,30.08,NNW,340,1.0,-999.0,-999,-99.99,,,-99.99,,2013-06-17 20:44:00,
2013-06-17 20:53:00,49.0,-99.9,30.08,NNW,340,1.0,-999.0,-999,-99.99,,,-99.99,,2013-06-17 20:53:00,
2013-06-17 21:00:00,48.0,-99.9,30.08,ENE,70,1.0,-999.0,-999,-99.99,,,-99.99,,2013-06-17 21:00:00,
2013-06-17 21:33:00,48.0,-99.9,30.08,ENE,70,1.0,-999.0,-999,-99.99,,,-99.99,,2013-06-17 21:33:00,
2013-06-17 21:43:00,48.0,-99.9,30.08,ENE,70,1.0,-999.0,-999,-99.99,,,-99.99,,2013-06-17 21:43:00,
2013-06-17 21:52:00,48.0,-99.9,30.08,ENE,70,1.0,-999.0,-999,-99.99,,,-99.99,,2013-06-17 21:52:00,
2013-06-17 22:00:00,52.0,-99.9,30.07,WSW,240,1.0,-999.0,-999,-99.99,,,-99.99,,2013-06-17 22:00:00,
2013-06-17 22:34:00,52.0,-99.9,30.07,WSW,240,1.0,-999.0,-999,-99.99,,,-99.99,,2013-06-17 22:34:00,
2013-06-17 22:43:00,52.0,-99.9,30.07,WSW,240,1.0,-999.0,-999,-99.99,,,-99.99,,2013-06-17 22:43:00,
2013-06-17 22:54:00,52.0,-99.9,30.07,WSW,240,1.0,-999.0,-999,-99.99,,,-99.99,,2013-06-17 22:54:00,
2013-06-17 23:00:00,48.0,-99.9,30.08,SW,220,1.0,-999.0,-999,-99.99,,,-99.99,,2013-06-17 23:00:00,
2013-06-17 23:33:00,48.0,-99.9,30.08,SW,220,1.0,-999.0,-999,-99.99,,,-99.99,,2013-06-17 23:33:00,
2013-06-17 23:43:00,48.0,-99.9,30.08,SW,220,1.0,-999.0,-999,-99.99,,,-99.99,,2013-06-17 23:43:00,
2013-06-17 23:53:00,48.0,-99.9,30.08,SW,220,1.0,-999.0,-999,-99.99,,,-99.99,,2013-06-17 23:53:00,